sensor_id;sensor_type;location;lat;lon;timestamp;pressure;altitude;pressure_sealevel;temperature;humidity
35489;BME280;21602;55.670;37.578;2023-09-30T00:01:24;99593.75;;;17.21;69.23
35489;BME280;21602;55.670;37.578;2023-09-30T00:03:50;99600.53;;;17.19;69.54
35489;BME280;21602;55.670;37.578;2023-09-30T00:06:16;99590.53;;;17.14;69.33
35489;BME280;21602;55.670;37.578;2023-09-30T00:08:43;99588.91;;;17.13;69.47
35489;BME280;21602;55.670;37.578;2023-09-30T00:11:09;99591.88;;;17.11;69.49
35489;BME280;21602;55.670;37.578;2023-09-30T00:13:35;99587.81;;;17.09;69.74
35489;BME280;21602;55.670;37.578;2023-09-30T00:16:01;99596.47;;;17.06;69.74
35489;BME280;21602;55.670;37.578;2023-09-30T00:18:27;99592.69;;;17.07;69.77
35489;BME280;21602;55.670;37.578;2023-09-30T00:20:53;99585.69;;;17.11;69.89
35489;BME280;21602;55.670;37.578;2023-09-30T00:23:19;99584.06;;;17.10;69.89
35489;BME280;21602;55.670;37.578;2023-09-30T00:25:47;99584.06;;;17.10;70.06
35489;BME280;21602;55.670;37.578;2023-09-30T00:28:15;99585.97;;;17.04;70.29
35489;BME280;21602;55.670;37.578;2023-09-30T00:30:40;99581.34;;;16.95;70.31
35489;BME280;21602;55.670;37.578;2023-09-30T00:33:06;99587.28;;;16.92;70.41
35489;BME280;21602;55.670;37.578;2023-09-30T00:35:33;99587.28;;;16.92;70.70
35489;BME280;21602;55.670;37.578;2023-09-30T00:37:59;99585.41;;;16.92;70.72
35489;BME280;21602;55.670;37.578;2023-09-30T00:40:25;99586.75;;;16.95;70.77
35489;BME280;21602;55.670;37.578;2023-09-30T00:42:51;99584.88;;;16.95;70.71
35489;BME280;21602;55.670;37.578;2023-09-30T00:45:17;99576.50;;;16.92;70.71
35489;BME280;21602;55.670;37.578;2023-09-30T00:47:43;99575.72;;;16.91;70.75
35489;BME280;21602;55.670;37.578;2023-09-30T00:50:10;99568.66;;;16.90;70.88
35489;BME280;21602;55.670;37.578;2023-09-30T00:52:38;99577.59;;;16.91;70.92
35489;BME280;21602;55.670;37.578;2023-09-30T00:55:05;99570.56;;;16.89;70.86
35489;BME280;21602;55.670;37.578;2023-09-30T00:57:32;99568.41;;;16.86;71.01
35489;BME280;21602;55.670;37.578;2023-09-30T01:00:00;99573.53;;;16.83;71.07
35489;BME280;21602;55.670;37.578;2023-09-30T01:02:26;99571.13;;;16.81;71.19
35489;BME280;21602;55.670;37.578;2023-09-30T01:04:54;99572.72;;;16.77;71.42
35489;BME280;21602;55.670;37.578;2023-09-30T01:07:21;99562.19;;;16.76;71.35
35489;BME280;21602;55.670;37.578;2023-09-30T01:09:49;99562.16;;;16.71;71.53
35489;BME280;21602;55.670;37.578;2023-09-30T01:12:16;99568.63;;;16.64;71.73
35489;BME280;21602;55.670;37.578;2023-09-30T01:14:42;99565.41;;;16.62;71.92
35489;BME280;21602;55.670;37.578;2023-09-30T01:17:09;99566.75;;;16.60;72.17
35489;BME280;21602;55.670;37.578;2023-09-30T01:19:35;99568.09;;;16.57;72.20
35489;BME280;21602;55.670;37.578;2023-09-30T01:22:02;99577.00;;;16.58;72.27
35489;BME280;21602;55.670;37.578;2023-09-30T01:24:40;99569.44;;;16.60;72.49
35489;BME280;21602;55.670;37.578;2023-09-30T01:27:10;99568.09;;;16.57;72.33
35489;BME280;21602;55.670;37.578;2023-09-30T01:29:37;99571.31;;;16.54;72.65
35489;BME280;21602;55.670;37.578;2023-09-30T01:32:06;99566.44;;;16.51;72.78
35489;BME280;21602;55.670;37.578;2023-09-30T01:34:36;99567.00;;;16.48;72.95
35489;BME280;21602;55.670;37.578;2023-09-30T01:37:03;99560.81;;;16.43;73.13
35489;BME280;21602;55.670;37.578;2023-09-30T01:39:30;99562.94;;;16.41;73.02
35489;BME280;21602;55.670;37.578;2023-09-30T01:41:56;99554.56;;;16.37;73.44
35489;BME280;21602;55.670;37.578;2023-09-30T01:44:22;99561.31;;;16.34;73.50
35489;BME280;21602;55.670;37.578;2023-09-30T01:46:48;99558.88;;;16.33;73.73
35489;BME280;21602;55.670;37.578;2023-09-30T01:49:14;99551.63;;;16.33;73.63
35489;BME280;21602;55.670;37.578;2023-09-30T01:51:40;99561.56;;;16.33;73.49
35489;BME280;21602;55.670;37.578;2023-09-30T01:54:06;99565.34;;;16.32;73.82
35489;BME280;21602;55.670;37.578;2023-09-30T01:56:34;99564.00;;;16.29;73.76
35489;BME280;21602;55.670;37.578;2023-09-30T01:59:00;99559.13;;;16.26;74.12
35489;BME280;21602;55.670;37.578;2023-09-30T02:01:26;99557.53;;;16.25;74.05
35489;BME280;21602;55.670;37.578;2023-09-30T02:03:52;99561.28;;;16.24;73.89
35489;BME280;21602;55.670;37.578;2023-09-30T02:06:18;99558.03;;;16.22;74.21
35489;BME280;21602;55.670;37.578;2023-09-30T02:08:44;99556.69;;;16.20;74.32
35489;BME280;21602;55.670;37.578;2023-09-30T02:11:10;99551.84;;;16.17;74.58
35489;BME280;21602;55.670;37.578;2023-09-30T02:13:39;99549.13;;;16.17;74.58
35489;BME280;21602;55.670;37.578;2023-09-30T02:16:05;99553.72;;;16.16;74.55
35489;BME280;21602;55.670;37.578;2023-09-30T02:18:37;99555.59;;;16.16;74.75
35489;BME280;21602;55.670;37.578;2023-09-30T02:21:03;99555.84;;;16.14;74.67
35489;BME280;21602;55.670;37.578;2023-09-30T02:23:29;99552.34;;;16.13;74.86
35489;BME280;21602;55.670;37.578;2023-09-30T02:25:55;99551.56;;;16.13;74.96
35489;BME280;21602;55.670;37.578;2023-09-30T02:28:22;99551.56;;;16.13;75.04
35489;BME280;21602;55.670;37.578;2023-09-30T02:30:48;99551.00;;;16.11;75.00
35489;BME280;21602;55.670;37.578;2023-09-30T02:33:14;99544.81;;;16.10;75.23
35489;BME280;21602;55.670;37.578;2023-09-30T02:35:44;99542.66;;;16.12;75.27
35489;BME280;21602;55.670;37.578;2023-09-30T02:38:11;99542.94;;;16.11;75.03
35489;BME280;21602;55.670;37.578;2023-09-30T02:40:37;99535.94;;;16.10;75.06
35489;BME280;21602;55.670;37.578;2023-09-30T02:43:05;99537.81;;;16.09;75.03
35489;BME280;21602;55.670;37.578;2023-09-30T02:45:31;99544.03;;;16.10;75.20
35489;BME280;21602;55.670;37.578;2023-09-30T02:47:57;99537.81;;;16.09;75.29
35489;BME280;21602;55.670;37.578;2023-09-30T02:50:24;99537.81;;;16.09;75.22
35489;BME280;21602;55.670;37.578;2023-09-30T02:52:49;99532.44;;;16.09;75.31
35489;BME280;21602;55.670;37.578;2023-09-30T02:55:15;99533.25;;;16.10;75.58
35489;BME280;21602;55.670;37.578;2023-09-30T02:57:45;99533.75;;;16.07;75.39
35489;BME280;21602;55.670;37.578;2023-09-30T03:00:12;99527.28;;;16.08;75.51
35489;BME280;21602;55.670;37.578;2023-09-30T03:02:53;99530.00;;;16.08;75.41
35489;BME280;21602;55.670;37.578;2023-09-30T03:05:20;99528.91;;;16.09;75.71
35489;BME280;21602;55.670;37.578;2023-09-30T03:07:47;99529.47;;;16.11;75.55
35489;BME280;21602;55.670;37.578;2023-09-30T03:10:14;99524.88;;;16.11;75.53
35489;BME280;21602;55.670;37.578;2023-09-30T03:12:47;99526.78;;;16.11;75.48
35489;BME280;21602;55.670;37.578;2023-09-30T03:15:14;99524.88;;;16.11;75.56
35489;BME280;21602;55.670;37.578;2023-09-30T03:17:40;99525.69;;;16.12;75.50
35489;BME280;21602;55.670;37.578;2023-09-30T03:20:08;99524.34;;;16.09;75.61
35489;BME280;21602;55.670;37.578;2023-09-30T03:22:43;99523.81;;;16.07;75.64
35489;BME280;21602;55.670;37.578;2023-09-30T03:25:15;99527.00;;;16.04;75.64
35489;BME280;21602;55.670;37.578;2023-09-30T03:27:46;99524.06;;;16.06;75.88
35489;BME280;21602;55.670;37.578;2023-09-30T03:30:14;99523.50;;;16.04;75.74
35489;BME280;21602;55.670;37.578;2023-09-30T03:32:44;99526.47;;;16.02;75.75
35489;BME280;21602;55.670;37.578;2023-09-30T03:35:11;99514.91;;;16.02;75.85
35489;BME280;21602;55.670;37.578;2023-09-30T03:37:41;99517.88;;;16.00;76.05
35489;BME280;21602;55.670;37.578;2023-09-30T03:40:07;99518.69;;;16.01;75.92
35489;BME280;21602;55.670;37.578;2023-09-30T03:42:41;99522.97;;;16.02;75.94
35489;BME280;21602;55.670;37.578;2023-09-30T03:45:11;99516.22;;;15.99;76.01
35489;BME280;21602;55.670;37.578;2023-09-30T03:47:40;99521.59;;;15.99;76.19
35489;BME280;21602;55.670;37.578;2023-09-30T03:50:07;99527.81;;;16.00;76.06
35489;BME280;21602;55.670;37.578;2023-09-30T03:52:38;99525.38;;;15.98;76.13
35489;BME280;21602;55.670;37.578;2023-09-30T03:55:04;99516.78;;;15.96;76.42
35489;BME280;21602;55.670;37.578;2023-09-30T03:57:32;99524.03;;;15.96;76.26
35489;BME280;21602;55.670;37.578;2023-09-30T04:00:00;99517.03;;;15.95;76.50
35489;BME280;21602;55.670;37.578;2023-09-30T04:02:26;99521.59;;;15.94;76.64
35489;BME280;21602;55.670;37.578;2023-09-30T04:04:53;99515.97;;;15.96;76.56
35489;BME280;21602;55.670;37.578;2023-09-30T04:07:21;99516.50;;;15.93;76.80
35489;BME280;21602;55.670;37.578;2023-09-30T04:09:48;99516.75;;;15.91;76.82
35489;BME280;21602;55.670;37.578;2023-09-30T04:12:14;99515.16;;;15.95;76.70
35489;BME280;21602;55.670;37.578;2023-09-30T04:14:40;99514.34;;;16.00;76.77
35489;BME280;21602;55.670;37.578;2023-09-30T04:17:06;99513.81;;;16.03;76.93
35489;BME280;21602;55.670;37.578;2023-09-30T04:19:32;99517.59;;;16.07;76.84
35489;BME280;21602;55.670;37.578;2023-09-30T04:21:59;99516.53;;;16.13;76.58
35489;BME280;21602;55.670;37.578;2023-09-30T04:24:26;99515.22;;;16.16;76.72
35489;BME280;21602;55.670;37.578;2023-09-30T04:26:55;99516.53;;;16.18;76.59
35489;BME280;21602;55.670;37.578;2023-09-30T04:29:27;99519.53;;;16.22;76.73
35489;BME280;21602;55.670;37.578;2023-09-30T04:31:53;99528.41;;;16.27;76.54
35489;BME280;21602;55.670;37.578;2023-09-30T04:34:20;99519.28;;;16.33;76.37
35489;BME280;21602;55.670;37.578;2023-09-30T04:36:47;99519.03;;;16.35;76.63
35489;BME280;21602;55.670;37.578;2023-09-30T04:39:13;99511.22;;;16.38;76.47
35489;BME280;21602;55.670;37.578;2023-09-30T04:41:40;99514.16;;;16.42;76.25
35489;BME280;21602;55.670;37.578;2023-09-30T04:44:07;99520.91;;;16.50;76.03
35489;BME280;21602;55.670;37.578;2023-09-30T04:46:37;99516.63;;;16.54;76.07
35489;BME280;21602;55.670;37.578;2023-09-30T04:49:09;99509.63;;;16.63;75.77
35489;BME280;21602;55.670;37.578;2023-09-30T04:51:35;99513.91;;;16.69;75.49
35489;BME280;21602;55.670;37.578;2023-09-30T04:54:01;99518.25;;;16.75;75.29
35489;BME280;21602;55.670;37.578;2023-09-30T04:56:30;99523.41;;;16.82;75.08
35489;BME280;21602;55.670;37.578;2023-09-30T04:58:56;99523.13;;;16.83;75.06
35489;BME280;21602;55.670;37.578;2023-09-30T05:01:22;99521.50;;;16.82;74.83
35489;BME280;21602;55.670;37.578;2023-09-30T05:03:47;99525.53;;;16.85;74.67
35489;BME280;21602;55.670;37.578;2023-09-30T05:06:15;99519.88;;;16.86;74.57
35489;BME280;21602;55.670;37.578;2023-09-30T05:08:41;99524.47;;;16.86;74.35
35489;BME280;21602;55.670;37.578;2023-09-30T05:11:07;99523.66;;;16.85;74.40
35489;BME280;21602;55.670;37.578;2023-09-30T05:13:33;99518.53;;;16.84;74.40
35489;BME280;21602;55.670;37.578;2023-09-30T05:15:59;99520.13;;;16.85;74.25
35489;BME280;21602;55.670;37.578;2023-09-30T05:18:25;99518.81;;;16.87;74.07
35489;BME280;21602;55.670;37.578;2023-09-30T05:20:51;99516.38;;;16.86;74.29
35489;BME280;21602;55.670;37.578;2023-09-30T05:23:17;99515.00;;;16.94;73.97
35489;BME280;21602;55.670;37.578;2023-09-30T05:25:44;99511.50;;;16.98;73.83
35489;BME280;21602;55.670;37.578;2023-09-30T05:28:10;99510.69;;;17.03;73.67
35489;BME280;21602;55.670;37.578;2023-09-30T05:30:37;99508.28;;;17.06;73.57
35489;BME280;21602;55.670;37.578;2023-09-30T05:33:03;99509.06;;;17.17;73.20
35489;BME280;21602;55.670;37.578;2023-09-30T05:35:33;99503.91;;;17.26;73.11
35489;BME280;21602;55.670;37.578;2023-09-30T05:37:59;99509.28;;;17.36;72.74
35489;BME280;21602;55.670;37.578;2023-09-30T05:40:25;99503.03;;;17.46;72.57
35489;BME280;21602;55.670;37.578;2023-09-30T05:42:56;99505.47;;;17.52;71.97
35489;BME280;21602;55.670;37.578;2023-09-30T05:45:31;99501.41;;;17.50;71.91
35489;BME280;21602;55.670;37.578;2023-09-30T05:48:02;99500.59;;;17.54;71.98
35489;BME280;21602;55.670;37.578;2023-09-30T05:50:32;99500.03;;;17.62;71.93
35489;BME280;21602;55.670;37.578;2023-09-30T05:52:59;99492.72;;;17.68;71.90
35489;BME280;21602;55.670;37.578;2023-09-30T05:55:26;99496.19;;;17.79;71.67
35489;BME280;21602;55.670;37.578;2023-09-30T05:57:52;99493.72;;;17.87;71.35
35489;BME280;21602;55.670;37.578;2023-09-30T06:00:18;99495.84;;;17.96;71.39
35489;BME280;21602;55.670;37.578;2023-09-30T06:02:57;99493.66;;;17.98;70.81
35489;BME280;21602;55.670;37.578;2023-09-30T06:05:23;99492.84;;;18.02;71.06
35489;BME280;21602;55.670;37.578;2023-09-30T06:07:49;99493.56;;;18.13;70.87
35489;BME280;21602;55.670;37.578;2023-09-30T06:10:15;99489.78;;;18.19;70.54
35489;BME280;21602;55.670;37.578;2023-09-30T06:12:51;99482.16;;;18.26;70.34
35489;BME280;21602;55.670;37.578;2023-09-30T06:15:21;99488.06;;;18.33;70.31
35489;BME280;21602;55.670;37.578;2023-09-30T06:17:53;99482.03;;;18.41;70.20
35489;BME280;21602;55.670;37.578;2023-09-30T06:20:20;99485.75;;;18.51;69.68
35489;BME280;21602;55.670;37.578;2023-09-30T06:22:49;99480.31;;;18.56;69.50
35489;BME280;21602;55.670;37.578;2023-09-30T06:25:16;99473.28;;;18.55;68.90
35489;BME280;21602;55.670;37.578;2023-09-30T06:27:47;99476.72;;;18.65;68.68
35489;BME280;21602;55.670;37.578;2023-09-30T06:30:14;99466.97;;;18.70;68.71
35489;BME280;21602;55.670;37.578;2023-09-30T06:32:42;99470.47;;;18.70;68.08
35489;BME280;21602;55.670;37.578;2023-09-30T06:35:09;99471.56;;;18.69;68.29
35489;BME280;21602;55.670;37.578;2023-09-30T06:37:39;99468.88;;;18.69;68.04
35489;BME280;21602;55.670;37.578;2023-09-30T06:40:10;99468.63;;;18.71;67.80
35489;BME280;21602;55.670;37.578;2023-09-30T06:42:38;99466.13;;;18.74;67.72
35489;BME280;21602;55.670;37.578;2023-09-30T06:45:06;99462.31;;;18.80;67.64
35489;BME280;21602;55.670;37.578;2023-09-30T06:47:34;99472.78;;;18.87;67.31
35489;BME280;21602;55.670;37.578;2023-09-30T06:50:01;99468.91;;;18.93;67.20
35489;BME280;21602;55.670;37.578;2023-09-30T06:52:34;99462.59;;;19.03;67.37
35489;BME280;21602;55.670;37.578;2023-09-30T06:55:02;99457.63;;;19.15;67.63
35489;BME280;21602;55.670;37.578;2023-09-30T06:57:33;99457.31;;;19.16;66.49
35489;BME280;21602;55.670;37.578;2023-09-30T06:59:59;99455.91;;;19.24;66.53
35489;BME280;21602;55.670;37.578;2023-09-30T07:02:25;99453.44;;;19.28;66.11
35489;BME280;21602;55.670;37.578;2023-09-30T07:04:52;99459.03;;;19.31;66.18
35489;BME280;21602;55.670;37.578;2023-09-30T07:07:18;99461.31;;;19.24;66.08
35489;BME280;21602;55.670;37.578;2023-09-30T07:09:44;99457.19;;;19.27;66.25
35489;BME280;21602;55.670;37.578;2023-09-30T07:12:11;99457.13;;;19.32;66.19
35489;BME280;21602;55.670;37.578;2023-09-30T07:14:37;99460.69;;;19.32;65.95
35489;BME280;21602;55.670;37.578;2023-09-30T07:17:03;99456.88;;;19.33;65.95
35489;BME280;21602;55.670;37.578;2023-09-30T07:19:31;99453.31;;;19.38;65.87
35489;BME280;21602;55.670;37.578;2023-09-30T07:21:57;99449.72;;;19.42;65.72
35489;BME280;21602;55.670;37.578;2023-09-30T07:24:23;99446.09;;;19.52;65.55
35489;BME280;21602;55.670;37.578;2023-09-30T07:26:51;99447.91;;;19.62;65.13
35489;BME280;21602;55.670;37.578;2023-09-30T07:29:20;99447.44;;;19.74;65.21
35489;BME280;21602;55.670;37.578;2023-09-30T07:31:46;99450.81;;;19.84;64.35
35489;BME280;21602;55.670;37.578;2023-09-30T07:34:12;99442.66;;;19.89;63.54
35489;BME280;21602;55.670;37.578;2023-09-30T07:36:38;99442.34;;;19.91;63.30
35489;BME280;21602;55.670;37.578;2023-09-30T07:39:04;99438.22;;;19.93;63.08
35489;BME280;21602;55.670;37.578;2023-09-30T07:41:34;99440.81;;;20.04;62.88
35489;BME280;21602;55.670;37.578;2023-09-30T07:44:02;99434.22;;;20.10;62.53
35489;BME280;21602;55.670;37.578;2023-09-30T07:46:28;99437.78;;;20.24;62.32
35489;BME280;21602;55.670;37.578;2023-09-30T07:48:54;99435.41;;;20.36;62.03
35489;BME280;21602;55.670;37.578;2023-09-30T07:51:21;99440.16;;;20.44;61.34
35489;BME280;21602;55.670;37.578;2023-09-30T07:53:47;99439.47;;;20.39;61.50
35489;BME280;21602;55.670;37.578;2023-09-30T07:56:13;99434.75;;;20.44;61.49
35489;BME280;21602;55.670;37.578;2023-09-30T07:58:39;99437.13;;;20.51;61.00
35489;BME280;21602;55.670;37.578;2023-09-30T08:01:07;99440.34;;;20.53;60.91
35489;BME280;21602;55.670;37.578;2023-09-30T08:03:33;99429.00;;;20.51;60.81
35489;BME280;21602;55.670;37.578;2023-09-30T08:06:00;99435.72;;;20.54;60.73
35489;BME280;21602;55.670;37.578;2023-09-30T08:08:26;99433.41;;;20.47;60.62
35489;BME280;21602;55.670;37.578;2023-09-30T08:10:52;99426.63;;;20.44;60.68
35489;BME280;21602;55.670;37.578;2023-09-30T08:13:24;99425.00;;;20.43;60.53
35489;BME280;21602;55.670;37.578;2023-09-30T08:15:50;99427.00;;;20.38;60.42
35489;BME280;21602;55.670;37.578;2023-09-30T08:18:19;99422.38;;;20.38;61.08
35489;BME280;21602;55.670;37.578;2023-09-30T08:20:45;99421.44;;;20.48;60.92
35489;BME280;21602;55.670;37.578;2023-09-30T08:23:10;99412.22;;;20.63;60.92
35489;BME280;21602;55.670;37.578;2023-09-30T08:25:39;99410.25;;;20.82;60.42
35489;BME280;21602;55.670;37.578;2023-09-30T08:28:05;99410.38;;;20.91;59.89
35489;BME280;21602;55.670;37.578;2023-09-30T08:30:34;99416.50;;;20.96;59.47
35489;BME280;21602;55.670;37.578;2023-09-30T08:33:00;99412.28;;;21.04;59.65
35489;BME280;21602;55.670;37.578;2023-09-30T08:35:26;99407.16;;;21.16;58.88
35489;BME280;21602;55.670;37.578;2023-09-30T08:37:51;99406.66;;;21.28;58.71
35489;BME280;21602;55.670;37.578;2023-09-30T08:40:21;99401.03;;;21.38;57.73
35489;BME280;21602;55.670;37.578;2023-09-30T08:42:51;99402.06;;;21.42;57.67
35489;BME280;21602;55.670;37.578;2023-09-30T08:45:18;99397.41;;;21.43;57.57
35489;BME280;21602;55.670;37.578;2023-09-30T08:47:44;99405.34;;;21.53;57.20
35489;BME280;21602;55.670;37.578;2023-09-30T08:50:12;99400.31;;;21.60;56.90
35489;BME280;21602;55.670;37.578;2023-09-30T08:52:41;99395.06;;;21.64;56.67
35489;BME280;21602;55.670;37.578;2023-09-30T08:55:07;99404.84;;;21.65;55.62
35489;BME280;21602;55.670;37.578;2023-09-30T08:57:37;99394.56;;;21.62;55.84
35489;BME280;21602;55.670;37.578;2023-09-30T09:00:06;99397.41;;;21.57;55.28
35489;BME280;21602;55.670;37.578;2023-09-30T09:02:35;99391.09;;;21.47;54.93
35489;BME280;21602;55.670;37.578;2023-09-30T09:05:02;99381.22;;;21.52;55.10
35489;BME280;21602;55.670;37.578;2023-09-30T09:07:29;99381.38;;;21.55;54.80
35489;BME280;21602;55.670;37.578;2023-09-30T09:10:08;99388.53;;;21.65;54.63
35489;BME280;21602;55.670;37.578;2023-09-30T09:12:39;99391.44;;;21.68;54.37
35489;BME280;21602;55.670;37.578;2023-09-30T09:15:07;99385.19;;;21.68;54.40
35489;BME280;21602;55.670;37.578;2023-09-30T09:17:40;99377.59;;;21.79;53.70
35489;BME280;21602;55.670;37.578;2023-09-30T09:20:08;99377.81;;;21.82;53.54
35489;BME280;21602;55.670;37.578;2023-09-30T09:22:43;99376.00;;;21.78;52.69
35489;BME280;21602;55.670;37.578;2023-09-30T09:25:10;99379.44;;;21.69;53.17
35489;BME280;21602;55.670;37.578;2023-09-30T09:27:37;99380.97;;;21.76;52.98
35489;BME280;21602;55.670;37.578;2023-09-30T09:30:20;99381.16;;;21.79;51.92
35489;BME280;21602;55.670;37.578;2023-09-30T09:35:25;99369.16;;;21.80;52.30
35489;BME280;21602;55.670;37.578;2023-09-30T09:38:01;99367.81;;;21.91;51.44
35489;BME280;21602;55.670;37.578;2023-09-30T09:40:32;99363.38;;;21.95;51.52
35489;BME280;21602;55.670;37.578;2023-09-30T09:42:58;99368.50;;;21.97;51.81
35489;BME280;21602;55.670;37.578;2023-09-30T09:45:27;99374.50;;;22.08;51.73
35489;BME280;21602;55.670;37.578;2023-09-30T09:47:56;99368.34;;;22.16;51.38
35489;BME280;21602;55.670;37.578;2023-09-30T09:50:23;99371.78;;;22.08;50.99
35489;BME280;21602;55.670;37.578;2023-09-30T09:52:51;99367.88;;;22.00;50.88
35489;BME280;21602;55.670;37.578;2023-09-30T09:55:22;99364.84;;;22.02;49.80
35489;BME280;21602;55.670;37.578;2023-09-30T09:57:49;99358.06;;;21.90;50.00
35489;BME280;21602;55.670;37.578;2023-09-30T10:00:18;99357.97;;;21.82;49.80
35489;BME280;21602;55.670;37.578;2023-09-30T10:02:45;99363.34;;;21.73;49.82
35489;BME280;21602;55.670;37.578;2023-09-30T10:05:15;99350.94;;;21.81;49.83
35489;BME280;21602;55.670;37.578;2023-09-30T10:07:54;99368.06;;;21.81;49.42
35489;BME280;21602;55.670;37.578;2023-09-30T10:10:22;99363.84;;;21.75;49.47
35489;BME280;21602;55.670;37.578;2023-09-30T10:12:49;99345.31;;;21.77;49.27
35489;BME280;21602;55.670;37.578;2023-09-30T10:20:42;99351.59;;;21.64;48.97
35489;BME280;21602;55.670;37.578;2023-09-30T10:23:26;99356.31;;;21.72;48.65
35489;BME280;21602;55.670;37.578;2023-09-30T10:26:13;99344.19;;;21.78;48.82
35489;BME280;21602;55.670;37.578;2023-09-30T10:28:45;99355.53;;;21.94;48.76
35489;BME280;21602;55.670;37.578;2023-09-30T10:34:19;99348.91;;;22.09;48.87
35489;BME280;21602;55.670;37.578;2023-09-30T10:36:46;99333.22;;;22.06;48.59
35489;BME280;21602;55.670;37.578;2023-09-30T10:39:13;99332.53;;;22.00;48.80
35489;BME280;21602;55.670;37.578;2023-09-30T10:46:57;99334.81;;;22.07;48.71
35489;BME280;21602;55.670;37.578;2023-09-30T10:51:50;99335.94;;;22.28;48.60
35489;BME280;21602;55.670;37.578;2023-09-30T10:54:22;99314.06;;;22.33;48.23
35489;BME280;21602;55.670;37.578;2023-09-30T10:56:52;99309.16;;;22.44;48.70
35489;BME280;21602;55.670;37.578;2023-09-30T10:59:22;99318.34;;;22.57;48.43
35489;BME280;21602;55.670;37.578;2023-09-30T11:01:51;99307.78;;;22.55;48.31
35489;BME280;21602;55.670;37.578;2023-09-30T11:04:17;99304.38;;;22.49;48.53
35489;BME280;21602;55.670;37.578;2023-09-30T11:06:44;99303.75;;;22.53;48.19
35489;BME280;21602;55.670;37.578;2023-09-30T11:09:16;99309.19;;;22.53;48.24
35489;BME280;21602;55.670;37.578;2023-09-30T11:11:48;99299.13;;;22.53;48.22
35489;BME280;21602;55.670;37.578;2023-09-30T11:14:18;99296.41;;;22.53;47.55
35489;BME280;21602;55.670;37.578;2023-09-30T11:16:45;99302.44;;;22.41;48.04
35489;BME280;21602;55.670;37.578;2023-09-30T11:19:12;99286.28;;;22.45;48.28
35489;BME280;21602;55.670;37.578;2023-09-30T11:21:39;99286.63;;;22.52;48.39
35489;BME280;21602;55.670;37.578;2023-09-30T11:24:06;99290.63;;;22.55;47.98
35489;BME280;21602;55.670;37.578;2023-09-30T11:26:33;99289.50;;;22.47;48.34
35489;BME280;21602;55.670;37.578;2023-09-30T11:29:15;99283.06;;;22.43;47.96
35489;BME280;21602;55.670;37.578;2023-09-30T11:31:46;99287.34;;;22.35;47.94
35489;BME280;21602;55.670;37.578;2023-09-30T11:34:15;99289.25;;;22.35;48.32
35489;BME280;21602;55.670;37.578;2023-09-30T11:36:52;99287.34;;;22.35;48.20
35489;BME280;21602;55.670;37.578;2023-09-30T11:39:23;99280.31;;;22.34;47.93
35489;BME280;21602;55.670;37.578;2023-09-30T11:41:51;99263.06;;;22.39;48.07
35489;BME280;21602;55.670;37.578;2023-09-30T11:44:18;99264.69;;;22.48;47.93
35489;BME280;21602;55.670;37.578;2023-09-30T11:51:54;99264.06;;;22.52;48.00
35489;BME280;21602;55.670;37.578;2023-09-30T11:54:20;99263.28;;;22.51;48.07
35489;BME280;21602;55.670;37.578;2023-09-30T11:56:48;99254.28;;;22.42;47.83
35489;BME280;21602;55.670;37.578;2023-09-30T11:59:17;99256.34;;;22.36;48.17
35489;BME280;21602;55.670;37.578;2023-09-30T12:01:45;99270.38;;;22.30;48.14
35489;BME280;21602;55.670;37.578;2023-09-30T12:04:15;99250.34;;;22.26;48.19
35489;BME280;21602;55.670;37.578;2023-09-30T12:06:43;99254.84;;;22.30;48.18
35489;BME280;21602;55.670;37.578;2023-09-30T12:09:09;99256.50;;;22.40;48.19
35489;BME280;21602;55.670;37.578;2023-09-30T12:11:39;99246.78;;;22.47;48.03
35489;BME280;21602;55.670;37.578;2023-09-30T12:14:05;99234.28;;;22.46;47.97
35489;BME280;21602;55.670;37.578;2023-09-30T12:16:32;99234.63;;;22.54;47.55
35489;BME280;21602;55.670;37.578;2023-09-30T12:18:57;99243.63;;;22.63;47.77
35489;BME280;21602;55.670;37.578;2023-09-30T12:21:23;99243.75;;;22.58;47.38
35489;BME280;21602;55.670;37.578;2023-09-30T12:23:49;99238.63;;;22.47;47.12
35489;BME280;21602;55.670;37.578;2023-09-30T12:26:17;99241.94;;;22.44;47.56
35489;BME280;21602;55.670;37.578;2023-09-30T12:28:46;99239.88;;;22.50;47.45
35489;BME280;21602;55.670;37.578;2023-09-30T12:31:13;99240.25;;;22.57;47.40
35489;BME280;21602;55.670;37.578;2023-09-30T12:33:40;99243.63;;;22.63;47.43
35489;BME280;21602;55.670;37.578;2023-09-30T12:36:06;99235.63;;;22.66;47.42
35489;BME280;21602;55.670;37.578;2023-09-30T12:38:33;99227.00;;;22.73;47.49
35489;BME280;21602;55.670;37.578;2023-09-30T12:40:59;99238.06;;;22.77;47.24
35489;BME280;21602;55.670;37.578;2023-09-30T12:43:26;99233.09;;;22.70;47.24
35489;BME280;21602;55.670;37.578;2023-09-30T12:45:52;99225.72;;;22.70;47.19
35489;BME280;21602;55.670;37.578;2023-09-30T12:48:18;99228.47;;;22.79;47.72
35489;BME280;21602;55.670;37.578;2023-09-30T12:50:44;99233.91;;;22.88;47.11
35489;BME280;21602;55.670;37.578;2023-09-30T12:53:10;99224.94;;;22.87;47.41
35489;BME280;21602;55.670;37.578;2023-09-30T12:55:36;99223.97;;;22.83;47.67
35489;BME280;21602;55.670;37.578;2023-09-30T12:58:02;99223.03;;;22.79;47.37
35489;BME280;21602;55.670;37.578;2023-09-30T13:00:28;99223.00;;;22.70;47.81
35489;BME280;21602;55.670;37.578;2023-09-30T13:02:56;99220.25;;;22.62;47.59
35489;BME280;21602;55.670;37.578;2023-09-30T13:05:23;99219.75;;;22.51;48.18
35489;BME280;21602;55.670;37.578;2023-09-30T13:07:49;99212.84;;;22.54;48.12
35489;BME280;21602;55.670;37.578;2023-09-30T13:10:15;99221.84;;;22.63;47.90
35489;BME280;21602;55.670;37.578;2023-09-30T13:12:41;99210.66;;;22.73;48.02
35489;BME280;21602;55.670;37.578;2023-09-30T13:15:07;99212.13;;;22.79;48.05
35489;BME280;21602;55.670;37.578;2023-09-30T13:17:34;99208.13;;;22.77;47.86